Time;durP1;ratioP1;P1;durP2;ratioP2;P2;SDS_P1;SDS_P2;PMS_P1;PMS_P2;Temp;Humidity;BMP_temperature;BMP_pressure;BME280_temperature;BME280_humidity;BME280_pressure;Samples;Min_cycle;Max_cycle;Signal;HPM_P1;HPM_P2
2022/05/19 00:00:06;;;;;;;33.97;23.48;;;16.70;99.90;;;;;;5048873;28;20059;-71
2022/05/19 00:02:32;;;;;;;35.58;26.73;;;16.80;99.90;;;;;;5052211;28;20033;-71
2022/05/19 00:04:57;;;;;;;32.22;25.13;;;16.80;99.90;;;;;;5052305;28;20048;-71
2022/05/19 00:07:23;;;;;;;38.13;29.25;;;16.80;99.90;;;;;;5052034;28;20091;-71
2022/05/19 00:09:49;;;;;;;36.72;24.40;;;16.80;99.90;;;;;;5052033;28;20049;-71
2022/05/19 00:12:18;;;;;;;39.15;26.58;;;16.70;99.90;;;;;;5051699;28;20383;-71
2022/05/19 00:14:44;;;;;;;41.95;28.40;;;16.80;99.90;;;;;;5052320;28;20395;-71
2022/05/19 00:17:10;;;;;;;31.20;25.60;;;16.60;99.90;;;;;;5051906;28;20052;-71
2022/05/19 00:19:35;;;;;;;38.72;27.27;;;16.70;99.90;;;;;;5053377;28;20033;-71
2022/05/19 00:22:01;;;;;;;37.70;26.88;;;16.70;99.90;;;;;;5051765;28;20108;-71
2022/05/19 00:24:28;;;;;;;36.13;28.27;;;16.70;99.90;;;;;;5052001;28;20114;-71
2022/05/19 00:26:53;;;;;;;43.80;28.98;;;16.60;99.90;;;;;;5053108;28;20400;-71
2022/05/19 00:29:19;;;;;;;34.28;28.70;;;16.60;99.90;;;;;;5053171;28;20120;-72
2022/05/19 00:31:45;;;;;;;40.40;31.70;;;16.70;99.90;;;;;;5051839;28;20079;-71
2022/05/19 00:34:10;;;;;;;40.72;29.88;;;16.70;99.90;;;;;;5052272;28;20037;-71
2022/05/19 00:36:36;;;;;;;42.05;32.05;;;16.70;99.90;;;;;;5052859;28;20048;-71
2022/05/19 00:39:03;;;;;;;41.35;29.80;;;16.70;99.90;;;;;;5053033;28;20044;-71
2022/05/19 00:41:29;;;;;;;37.50;30.17;;;16.70;99.90;;;;;;5051258;28;20051;-71
2022/05/19 00:44:04;;;;;;;41.53;32.40;;;16.50;99.90;;;;;;5051681;28;20041;-71
2022/05/19 00:46:47;;;;;;;38.03;30.30;;;16.60;99.90;;;;;;5051602;28;20039;-71
2022/05/19 00:49:21;;;;;;;39.60;30.50;;;16.60;99.90;;;;;;5051664;28;20071;-71
2022/05/19 00:51:51;;;;;;;46.30;33.50;;;16.60;99.90;;;;;;5051270;28;20056;-71
2022/05/19 00:54:21;;;;;;;42.22;31.73;;;16.50;99.90;;;;;;5050618;28;20120;-71
2022/05/19 00:56:55;;;;;;;43.92;32.53;;;16.60;99.90;;;;;;5051527;28;20045;-71
2022/05/19 00:59:48;;;;;;;47.88;34.42;;;16.60;99.90;;;;;;5052769;28;20041;-71
2022/05/19 01:02:17;;;;;;;48.10;32.83;;;16.60;99.90;;;;;;5051108;28;20045;-72
2022/05/19 01:04:56;;;;;;;49.00;37.03;;;16.60;99.90;;;;;;5051560;28;20402;-71
2022/05/19 01:07:29;;;;;;;48.28;35.42;;;16.60;99.90;;;;;;5051416;28;20486;-71
2022/05/19 01:09:57;;;;;;;52.53;37.10;;;16.60;99.90;;;;;;5051124;28;20040;-72
2022/05/19 01:12:23;;;;;;;51.13;36.65;;;16.60;99.90;;;;;;5051397;28;20407;-71
2022/05/19 01:14:49;;;;;;;55.25;35.58;;;16.60;99.90;;;;;;5050969;28;20045;-71
2022/05/19 01:17:14;;;;;;;52.15;36.10;;;16.60;99.90;;;;;;5050791;28;20040;-71
2022/05/19 01:19:46;;;;;;;54.15;37.70;;;16.60;99.90;;;;;;5052170;28;20127;-71
2022/05/19 01:22:14;;;;;;;47.20;34.90;;;16.60;99.90;;;;;;5050598;28;20095;-71
2022/05/19 01:25:06;;;;;;;51.05;37.28;;;16.60;99.90;;;;;;5051059;28;20394;-71
2022/05/19 01:27:32;;;;;;;54.30;37.00;;;16.60;99.90;;;;;;5052066;28;20426;-71
2022/05/19 01:29:58;;;;;;;51.53;39.22;;;16.50;99.90;;;;;;5050541;28;20041;-71
2022/05/19 01:32:29;;;;;;;59.10;40.55;;;16.50;99.90;;;;;;5050737;28;20067;-71
2022/05/19 01:34:56;;;;;;;60.13;40.58;;;16.50;99.90;;;;;;5050755;28;20087;-71
2022/05/19 01:37:21;;;;;;;62.50;41.78;;;16.50;99.90;;;;;;5050415;28;20041;-71
2022/05/19 01:39:54;;;;;;;59.47;42.05;;;16.50;99.90;;;;;;5050468;28;20037;-71
2022/05/19 01:42:41;;;;;;;57.58;40.90;;;16.50;99.90;;;;;;5050587;28;20049;-71
2022/05/19 01:45:36;;;;;;;62.22;41.40;;;16.50;99.90;;;;;;5051833;28;20068;-71
2022/05/19 01:48:32;;;;;;;56.13;41.60;;;16.40;99.90;;;;;;5049998;28;20059;-72
2022/05/19 01:51:11;;;;;;;60.40;42.58;;;16.50;99.90;;;;;;5050177;28;20040;-72
2022/05/19 01:53:45;;;;;;;61.20;44.75;;;16.40;99.90;;;;;;5050661;28;20131;-72
2022/05/19 01:56:17;;;;;;;58.53;42.85;;;16.40;99.90;;;;;;5050544;28;20045;-71
2022/05/19 01:58:55;;;;;;;65.85;44.38;;;16.40;99.90;;;;;;5050293;28;20422;-71
2022/05/19 02:01:26;;;;;;;74.50;48.60;;;16.40;99.90;;;;;;5050404;28;20491;-72
2022/05/19 02:04:32;;;;;;;61.42;44.88;;;16.30;99.90;;;;;;5050280;28;20033;-71
2022/05/19 02:07:05;;;;;;;67.70;50.15;;;16.30;99.90;;;;;;5050149;28;20049;-72
2022/05/19 02:09:43;;;;;;;64.55;49.13;;;16.20;99.90;;;;;;5050303;28;20051;-72
2022/05/19 02:12:09;;;;;;;67.40;49.97;;;16.30;99.90;;;;;;5050066;28;20462;-71
2022/05/19 02:14:42;;;;;;;69.93;49.88;;;16.20;99.90;;;;;;5051616;28;20078;-71
2022/05/19 02:17:12;;;;;;;63.95;47.42;;;16.20;99.90;;;;;;5050116;28;20098;-71
2022/05/19 02:19:46;;;;;;;63.30;47.83;;;16.20;99.90;;;;;;5050313;28;20398;-71
2022/05/19 02:22:17;;;;;;;67.40;50.47;;;16.30;99.90;;;;;;5049954;28;20044;-71
2022/05/19 02:24:52;;;;;;;70.47;49.20;;;16.30;99.90;;;;;;5050248;28;20487;-72
2022/05/19 02:27:50;;;;;;;68.63;50.15;;;16.20;99.90;;;;;;5050337;28;20041;-71
2022/05/19 02:30:22;;;;;;;62.88;47.08;;;16.20;99.90;;;;;;5049853;28;20036;-71
2022/05/19 02:32:48;;;;;;;63.83;47.33;;;16.30;99.90;;;;;;5050227;28;20125;-71
2022/05/19 02:35:14;;;;;;;63.65;43.63;;;16.20;99.90;;;;;;5033365;28;20128;-71
2022/05/19 02:37:40;;;;;;;64.45;46.58;;;16.30;99.90;;;;;;5049922;28;20048;-71
2022/05/19 02:40:07;;;;;;;58.92;45.97;;;16.30;99.90;;;;;;5049665;28;20033;-71
2022/05/19 02:42:32;;;;;;;63.28;47.70;;;16.30;99.90;;;;;;5049956;28;20040;-71
2022/05/19 02:44:58;;;;;;;70.57;49.30;;;16.30;99.90;;;;;;5049909;28;20033;-71
2022/05/19 02:47:24;;;;;;;62.75;46.63;;;16.30;99.90;;;;;;5051231;28;20049;-71
2022/05/19 02:49:49;;;;;;;60.72;46.75;;;16.20;99.90;;;;;;5050137;28;20075;-71
2022/05/19 02:52:15;;;;;;;69.03;49.67;;;16.30;99.90;;;;;;5049589;28;20040;-71
2022/05/19 02:54:40;;;;;;;61.42;46.40;;;16.20;99.90;;;;;;5051159;28;20052;-72
2022/05/19 02:57:06;;;;;;;61.42;46.90;;;16.30;99.90;;;;;;5049611;28;20045;-71
2022/05/19 02:59:31;;;;;;;61.58;43.47;;;16.20;99.90;;;;;;5050059;28;20036;-71
2022/05/19 03:01:57;;;;;;;64.63;46.63;;;16.30;99.90;;;;;;5049712;28;20486;-71
2022/05/19 03:04:23;;;;;;;69.75;49.35;;;16.30;99.90;;;;;;5049769;28;20086;-72
2022/05/19 03:06:49;;;;;;;66.25;48.70;;;16.20;99.90;;;;;;5049604;28;20049;-71
2022/05/19 03:09:14;;;;;;;61.03;48.40;;;16.30;99.90;;;;;;5049752;28;20044;-71
2022/05/19 03:11:40;;;;;;;73.80;49.40;;;16.30;99.90;;;;;;5050578;28;20041;-71
2022/05/19 03:14:05;;;;;;;63.25;48.08;;;16.20;99.90;;;;;;5051138;28;20044;-71
2022/05/19 03:16:31;;;;;;;70.15;50.85;;;16.20;99.90;;;;;;5050218;28;20136;-71
2022/05/19 03:18:57;;;;;;;67.15;48.85;;;16.30;99.90;;;;;;5053240;28;20548;-71
2022/05/19 03:21:22;;;;;;;67.15;49.88;;;16.20;99.90;;;;;;5052965;28;20041;-71
2022/05/19 03:23:48;;;;;;;65.45;49.17;;;16.30;99.90;;;;;;5053157;28;20044;-71
2022/05/19 03:26:13;;;;;;;70.38;53.15;;;16.30;99.90;;;;;;5054188;28;20095;-72
2022/05/19 03:28:39;;;;;;;73.47;50.83;;;16.30;99.90;;;;;;5036430;28;20182;-72
2022/05/19 03:31:05;;;;;;;73.55;50.88;;;16.30;99.90;;;;;;5054082;28;20041;-71
2022/05/19 03:33:30;;;;;;;68.07;51.60;;;16.30;99.90;;;;;;5052958;28;20044;-71
2022/05/19 03:35:57;;;;;;;70.82;52.35;;;16.30;99.90;;;;;;5053051;28;20092;-72
2022/05/19 03:38:23;;;;;;;71.20;51.35;;;16.30;99.90;;;;;;5052795;28;20048;-71
2022/05/19 03:40:48;;;;;;;73.40;54.05;;;16.30;99.90;;;;;;5052808;28;20044;-71
2022/05/19 03:43:14;;;;;;;76.07;53.38;;;16.30;99.90;;;;;;5053108;28;20033;-71
2022/05/19 03:45:40;;;;;;;77.50;55.90;;;16.30;99.90;;;;;;5052726;28;20033;-71
2022/05/19 03:48:05;;;;;;;73.70;53.35;;;16.40;99.90;;;;;;5052796;28;20063;-71
2022/05/19 03:50:31;;;;;;;81.10;56.05;;;16.40;99.90;;;;;;5052261;28;20070;-72
2022/05/19 03:52:57;;;;;;;75.57;55.53;;;16.30;99.90;;;;;;5052821;28;20047;-71
2022/05/19 03:55:23;;;;;;;78.32;57.63;;;16.40;99.90;;;;;;5053696;28;20049;-71
2022/05/19 03:57:48;;;;;;;75.53;54.85;;;16.30;99.90;;;;;;5035909;28;20041;-71
2022/05/19 04:00:14;;;;;;;82.13;57.33;;;16.30;99.90;;;;;;5052452;28;20044;-71
2022/05/19 04:02:40;;;;;;;73.40;56.17;;;16.40;99.90;;;;;;5052519;28;20052;-71
2022/05/19 04:05:07;;;;;;;77.50;57.47;;;16.30;99.90;;;;;;5052383;28;20029;-71
2022/05/19 04:07:32;;;;;;;78.97;56.33;;;16.30;99.90;;;;;;5035664;28;20091;-71
2022/05/19 04:09:58;;;;;;;78.07;57.90;;;16.30;99.90;;;;;;5051978;28;20048;-71
2022/05/19 04:12:24;;;;;;;87.25;60.90;;;16.30;99.90;;;;;;5052089;28;20041;-71
2022/05/19 04:14:50;;;;;;;82.30;58.30;;;16.40;99.90;;;;;;5052194;28;20044;-71
2022/05/19 04:17:15;;;;;;;72.60;53.95;;;16.40;99.90;;;;;;5052001;28;20495;-71
2022/05/19 04:19:41;;;;;;;77.63;56.95;;;16.50;99.90;;;;;;5052000;28;20123;-71
2022/05/19 04:22:07;;;;;;;81.55;56.50;;;16.50;99.90;;;;;;5051856;28;20040;-71
2022/05/19 04:24:32;;;;;;;76.43;56.97;;;16.50;99.90;;;;;;5052095;28;20476;-72
2022/05/19 04:26:58;;;;;;;78.07;57.65;;;16.40;99.90;;;;;;5051824;28;20140;-72
2022/05/19 04:29:24;;;;;;;79.82;59.08;;;16.50;99.90;;;;;;5051859;28;20139;-71
2022/05/19 04:31:50;;;;;;;85.72;58.92;;;16.50;99.90;;;;;;5051680;28;20036;-71
2022/05/19 04:34:15;;;;;;;77.50;56.35;;;16.60;99.90;;;;;;5035553;28;20091;-71
2022/05/19 04:36:41;;;;;;;84.88;56.80;;;16.60;99.90;;;;;;5051654;28;20037;-71
2022/05/19 04:39:06;;;;;;;80.25;58.83;;;16.70;99.90;;;;;;5051763;28;20098;-71
2022/05/19 04:41:32;;;;;;;79.95;59.13;;;16.70;99.90;;;;;;5051513;28;20041;-71
2022/05/19 04:43:57;;;;;;;76.38;55.05;;;16.80;99.90;;;;;;5051631;28;20072;-71
2022/05/19 04:46:23;;;;;;;83.47;60.40;;;16.90;99.90;;;;;;5051712;28;20449;-71
2022/05/19 04:48:48;;;;;;;76.68;57.08;;;16.90;99.90;;;;;;5051590;28;20037;-71
2022/05/19 04:51:14;;;;;;;76.10;55.90;;;17.00;99.90;;;;;;5051247;28;20041;-71
2022/05/19 04:53:40;;;;;;;74.63;55.63;;;17.10;99.90;;;;;;5052687;28;20044;-72
2022/05/19 04:56:05;;;;;;;75.78;57.72;;;17.30;99.90;;;;;;5051641;28;20036;-71
2022/05/19 04:58:31;;;;;;;78.15;56.72;;;17.40;99.90;;;;;;5051442;28;20071;-71
2022/05/19 05:00:56;;;;;;;75.88;56.55;;;17.40;99.90;;;;;;5051075;28;20088;-72
2022/05/19 05:03:22;;;;;;;72.78;57.30;;;17.50;99.90;;;;;;5051337;28;20045;-71
2022/05/19 05:05:47;;;;;;;74.03;55.65;;;17.60;99.90;;;;;;5051302;28;20044;-71
2022/05/19 05:08:13;;;;;;;73.75;57.53;;;17.50;99.90;;;;;;5052586;28;20081;-71
2022/05/19 05:10:40;;;;;;;77.05;57.38;;;17.60;99.90;;;;;;5050974;28;20037;-71
2022/05/19 05:13:11;;;;;;;82.43;59.75;;;17.60;99.90;;;;;;5050912;28;20517;-71
2022/05/19 05:15:38;;;;;;;79.57;60.58;;;17.60;99.90;;;;;;5051005;28;20036;-71
2022/05/19 05:18:05;;;;;;;78.60;55.97;;;17.60;99.90;;;;;;5051038;28;20045;-71
2022/05/19 05:20:30;;;;;;;82.22;59.03;;;17.70;99.90;;;;;;5050646;28;20040;-71
2022/05/19 05:22:56;;;;;;;83.65;58.97;;;17.70;99.90;;;;;;5050898;28;20045;-71
2022/05/19 05:25:22;;;;;;;73.82;56.30;;;17.70;99.90;;;;;;5050836;28;20047;-71
2022/05/19 05:27:48;;;;;;;65.93;52.80;;;17.80;99.90;;;;;;5034342;28;20041;-71
2022/05/19 05:30:14;;;;;;;66.95;51.67;;;17.90;99.90;;;;;;5050587;28;20130;-71
2022/05/19 05:32:40;;;;;;;66.30;51.55;;;18.00;99.90;;;;;;5050805;28;20132;-71
2022/05/19 05:35:08;;;;;;;64.95;51.22;;;18.30;99.90;;;;;;5052123;28;20513;-71
2022/05/19 05:37:35;;;;;;;69.63;52.15;;;18.50;99.90;;;;;;5050401;28;20491;-71
2022/05/19 05:40:01;;;;;;;61.70;47.03;;;18.80;99.90;;;;;;5050002;28;20089;-71
2022/05/19 05:42:27;;;;;;;55.65;43.85;;;19.00;99.90;;;;;;5050864;28;20044;-71
2022/05/19 05:44:52;;;;;;;57.92;43.55;;;19.20;99.90;;;;;;5051963;28;20507;-71
2022/05/19 05:47:18;;;;;;;54.97;42.58;;;19.40;99.90;;;;;;5051491;28;20610;-71
2022/05/19 05:49:44;;;;;;;54.95;41.40;;;19.60;99.90;;;;;;5051740;28;20041;-71
2022/05/19 05:52:09;;;;;;;52.72;40.45;;;19.60;99.90;;;;;;5051452;28;20404;-71
2022/05/19 05:54:35;;;;;;;53.92;38.85;;;19.60;99.90;;;;;;5051663;28;20033;-71
2022/05/19 05:57:00;;;;;;;49.40;40.97;;;19.70;99.90;;;;;;5051549;28;20072;-71
2022/05/19 05:59:26;;;;;;;47.17;35.80;;;19.90;99.90;;;;;;5050563;28;20037;-71
2022/05/19 06:01:52;;;;;;;44.15;35.13;;;20.00;99.90;;;;;;5050074;28;20512;-71
2022/05/19 06:04:18;;;;;;;39.70;31.65;;;20.00;99.90;;;;;;5050252;28;20040;-71
2022/05/19 06:06:45;;;;;;;34.42;29.48;;;20.20;99.90;;;;;;5050227;28;20450;-71
2022/05/19 06:09:12;;;;;;;39.80;29.08;;;20.20;99.90;;;;;;5050532;28;20076;-71
2022/05/19 06:11:38;;;;;;;32.72;26.60;;;20.40;99.90;;;;;;5050006;28;20063;-71
2022/05/19 06:14:04;;;;;;;30.15;25.20;;;20.60;99.90;;;;;;5050245;28;20045;-71
2022/05/19 06:16:30;;;;;;;30.60;24.38;;;20.60;99.90;;;;;;5050113;28;20040;-71
2022/05/19 06:18:55;;;;;;;33.15;25.20;;;20.50;99.90;;;;;;5050244;28;20051;-71
2022/05/19 06:21:21;;;;;;;33.35;25.80;;;20.50;99.90;;;;;;5049947;28;20037;-72
2022/05/19 06:23:47;;;;;;;30.05;23.10;;;20.50;99.90;;;;;;5050288;28;20044;-72
2022/05/19 06:26:13;;;;;;;28.33;24.23;;;20.50;99.90;;;;;;5050088;28;20037;-73
2022/05/19 06:28:38;;;;;;;30.80;24.40;;;20.60;99.90;;;;;;5033648;28;20049;-72
2022/05/19 06:31:05;;;;;;;30.38;23.88;;;20.80;99.90;;;;;;5049769;28;20410;-72
2022/05/19 06:33:34;;;;;;;30.10;23.63;;;20.90;99.90;;;;;;5051309;28;20161;-72
2022/05/19 06:35:59;;;;;;;26.75;22.42;;;20.90;99.90;;;;;;5049821;28;20049;-72
2022/05/19 06:38:25;;;;;;;26.90;21.63;;;21.00;99.90;;;;;;5050047;28;20056;-72
2022/05/19 06:40:51;;;;;;;30.15;22.38;;;21.00;99.90;;;;;;5049718;28;20048;-69
2022/05/19 06:43:19;;;;;;;34.63;24.55;;;21.10;99.90;;;;;;5050692;28;20061;-72
2022/05/19 06:45:44;;;;;;;34.03;24.27;;;21.00;99.90;;;;;;5049504;28;20032;-72
2022/05/19 06:48:11;;;;;;;27.55;21.88;;;21.10;99.90;;;;;;5050676;28;20044;-72
2022/05/19 06:50:36;;;;;;;27.85;23.20;;;21.00;99.90;;;;;;5049447;28;20041;-73
2022/05/19 06:53:03;;;;;;;30.27;23.13;;;21.30;99.90;;;;;;5052761;28;20512;-73
2022/05/19 06:55:34;;;;;;;26.85;21.95;;;21.40;99.90;;;;;;5053764;28;20044;-72
2022/05/19 06:57:59;;;;;;;26.58;21.73;;;21.30;99.90;;;;;;5053575;28;20045;-73
2022/05/19 07:00:27;;;;;;;25.65;20.17;;;21.10;99.90;;;;;;5053416;28;20120;-72
2022/05/19 07:02:57;;;;;;;27.50;20.88;;;21.10;99.90;;;;;;5053778;28;20165;-72
2022/05/19 07:05:26;;;;;;;26.42;21.27;;;20.90;99.90;;;;;;5053568;28;20040;-73
2022/05/19 07:07:52;;;;;;;27.00;21.20;;;20.70;99.90;;;;;;5053535;28;20047;-73
2022/05/19 07:10:21;;;;;;;28.40;20.88;;;20.60;99.90;;;;;;5053485;28;20128;-73
2022/05/19 07:12:47;;;;;;;26.10;21.67;;;20.50;99.90;;;;;;5053453;28;20529;-73
2022/05/19 07:15:14;;;;;;;24.65;20.00;;;20.40;99.90;;;;;;5053271;28;20086;-73
2022/05/19 07:17:40;;;;;;;25.50;21.23;;;20.40;99.90;;;;;;5053401;28;20048;-72
2022/05/19 07:22:51;;;;;;;29.55;21.63;;;20.20;99.90;;;;;;5053310;28;20495;-73
2022/05/19 07:25:17;;;;;;;30.13;24.10;;;20.20;99.90;;;;;;5053101;28;20044;-73
2022/05/19 07:27:42;;;;;;;30.25;24.35;;;20.10;99.90;;;;;;5053339;28;20493;-72
2022/05/19 07:30:10;;;;;;;33.70;23.88;;;19.90;99.90;;;;;;5052717;28;20051;-71
2022/05/19 07:32:36;;;;;;;26.83;22.30;;;19.80;99.90;;;;;;5053134;28;20037;-72
2022/05/19 07:35:03;;;;;;;32.30;23.83;;;19.70;99.90;;;;;;5052973;28;20049;-73
2022/05/19 07:37:28;;;;;;;28.15;22.88;;;19.60;99.90;;;;;;5036272;28;20041;-72
2022/05/19 07:39:54;;;;;;;29.38;22.52;;;19.50;99.90;;;;;;5052880;28;20486;-72
2022/05/19 07:42:20;;;;;;;31.35;24.52;;;19.40;99.90;;;;;;5053084;28;20191;-71
2022/05/19 07:44:46;;;;;;;27.60;22.13;;;19.40;99.90;;;;;;5054078;28;20052;-71
2022/05/19 07:47:14;;;;;;;25.73;20.92;;;19.30;99.90;;;;;;5052947;28;20041;-72
2022/05/19 07:49:40;;;;;;;27.40;20.92;;;19.10;99.90;;;;;;5054105;28;20048;-71
2022/05/19 07:52:07;;;;;;;25.00;20.63;;;19.20;99.90;;;;;;5052486;28;20048;-72
2022/05/19 07:54:33;;;;;;;24.63;22.02;;;19.20;99.90;;;;;;5052619;28;20084;-71
2022/05/19 07:56:59;;;;;;;23.35;20.90;;;19.20;99.90;;;;;;5052449;28;20037;-71
2022/05/19 07:59:25;;;;;;;26.15;23.33;;;19.10;99.90;;;;;;5054265;28;20453;-71
2022/05/19 08:01:52;;;;;;;28.50;22.60;;;19.10;99.90;;;;;;5053515;28;20487;-71
2022/05/19 08:04:19;;;;;;;29.38;23.83;;;19.10;99.90;;;;;;5052145;28;20056;-72
2022/05/19 08:06:46;;;;;;;29.42;25.33;;;19.10;99.90;;;;;;5053744;28;20076;-71
2022/05/19 08:11:57;;;;;;;31.38;25.80;;;19.00;99.90;;;;;;5052428;28;20418;-71
2022/05/19 08:17:08;;;;;;;32.28;27.70;;;19.00;99.90;;;;;;5053525;28;20072;-71
2022/05/19 08:19:34;;;;;;;34.15;29.65;;;19.00;99.90;;;;;;5052330;28;20575;-71
2022/05/19 08:22:00;;;;;;;35.90;30.88;;;19.00;99.90;;;;;;5052154;28;20116;-71
2022/05/19 08:24:26;;;;;;;37.95;31.00;;;19.00;99.90;;;;;;5053456;28;20039;-71
2022/05/19 08:26:52;;;;;;;44.15;33.67;;;19.00;99.90;;;;;;5052053;28;20048;-71
2022/05/19 08:29:19;;;;;;;40.28;32.50;;;19.10;99.90;;;;;;5053442;28;20037;-70
2022/05/19 08:31:45;;;;;;;35.55;29.90;;;19.10;99.90;;;;;;5051712;28;20431;-70
2022/05/19 08:34:13;;;;;;;33.65;29.05;;;19.10;99.90;;;;;;5052006;28;20052;-70
2022/05/19 08:36:39;;;;;;;39.38;30.63;;;19.10;99.90;;;;;;5052852;28;20040;-69
2022/05/19 08:39:05;;;;;;;36.20;31.30;;;19.10;99.90;;;;;;5051852;28;20040;-70
2022/05/19 08:41:35;;;;;;;44.03;31.48;;;19.00;99.90;;;;;;5051631;28;20090;-70
2022/05/19 08:44:19;;;;;;;38.03;30.60;;;19.10;99.90;;;;;;5053132;28;20045;-70
2022/05/19 08:46:49;;;;;;;37.33;29.75;;;19.10;99.90;;;;;;5052954;28;20048;-70
2022/05/19 08:49:31;;;;;;;32.60;28.88;;;19.10;99.90;;;;;;5052897;28;20675;-70
2022/05/19 08:52:22;;;;;;;34.40;27.80;;;19.20;99.90;;;;;;5051340;28;20483;-70
2022/05/19 08:54:50;;;;;;;37.47;28.80;;;19.20;99.90;;;;;;5052888;28;20108;-70
2022/05/19 08:57:24;;;;;;;35.40;28.30;;;19.30;99.90;;;;;;5051322;28;20048;-70
2022/05/19 09:00:09;;;;;;;38.97;29.52;;;19.30;99.90;;;;;;5052879;28;20045;-70
2022/05/19 09:02:46;;;;;;;35.08;29.30;;;19.40;99.90;;;;;;5052628;28;20047;-70
2022/05/19 09:05:43;;;;;;;32.15;25.85;;;19.50;99.90;;;;;;5052749;28;20043;-70
2022/05/19 09:08:15;;;;;;;38.53;26.10;;;19.60;99.90;;;;;;5052818;28;20128;-70
2022/05/19 09:11:15;;;;;;;31.70;25.85;;;19.70;99.90;;;;;;5052446;28;20044;-70
2022/05/19 09:14:05;;;;;;;28.35;23.80;;;19.90;99.90;;;;;;5052365;28;20414;-70
2022/05/19 09:16:34;;;;;;;25.13;21.45;;;20.10;99.90;;;;;;5051072;28;20048;-70
2022/05/19 09:19:29;;;;;;;24.15;17.35;;;20.20;99.90;;;;;;5052564;28;20106;-70
2022/05/19 09:22:11;;;;;;;22.55;16.95;;;20.30;99.90;;;;;;5052141;28;20068;-70
2022/05/19 09:24:37;;;;;;;19.95;17.02;;;20.40;99.90;;;;;;5051034;28;20115;-69
2022/05/19 09:27:03;;;;;;;24.17;15.80;;;20.60;99.90;;;;;;5052399;28;20132;-68
2022/05/19 09:29:44;;;;;;;17.25;13.90;;;21.00;99.90;;;;;;5051804;28;20041;-68
2022/05/19 09:32:37;;;;;;;17.85;15.20;;;21.30;99.90;;;;;;5051878;28;20080;-67
2022/05/19 09:35:10;;;;;;;19.58;15.05;;;21.60;99.90;;;;;;5051827;28;20086;-68
2022/05/19 09:37:37;;;;;;;21.58;16.65;;;21.80;99.90;;;;;;5050806;28;20045;-67
2022/05/19 09:40:12;;;;;;;20.40;14.10;;;21.90;99.90;;;;;;5051898;28;20048;-67
2022/05/19 09:42:56;;;;;;;22.23;15.52;;;22.00;99.90;;;;;;5051916;28;20490;-67
2022/05/19 09:45:27;;;;;;;18.92;13.38;;;22.20;99.90;;;;;;5051877;28;20094;-69
2022/05/19 09:48:00;;;;;;;16.13;12.65;;;22.30;99.90;;;;;;5051971;28;20049;-68
2022/05/19 09:50:29;;;;;;;17.42;13.35;;;22.50;99.90;;;;;;5051863;28;20037;-68
2022/05/19 09:53:07;;;;;;;15.02;13.00;;;22.70;99.90;;;;;;5051184;28;20040;-68
2022/05/19 09:55:41;;;;;;;21.23;13.85;;;22.70;99.90;;;;;;5051298;28;20033;-68
2022/05/19 09:58:10;;;;;;;16.58;13.52;;;22.70;99.90;;;;;;5049926;28;20390;-68
2022/05/19 10:00:35;;;;;;;18.02;14.05;;;22.80;99.90;;;;;;5051147;28;20040;-68
2022/05/19 10:03:02;;;;;;;17.50;13.05;;;22.70;99.90;;;;;;5051573;28;20033;-68
2022/05/19 10:05:42;;;;;;;17.60;12.88;;;22.80;99.90;;;;;;5051801;28;20052;-68
2022/05/19 10:08:23;;;;;;;14.40;11.80;;;22.90;99.70;;;;;;5051678;28;20045;-68
2022/05/19 10:11:01;;;;;;;17.95;13.80;;;22.80;99.30;;;;;;5051667;28;20049;-68
2022/05/19 10:13:31;;;;;;;19.23;14.73;;;22.90;99.30;;;;;;5051669;28;20063;-68
2022/05/19 10:16:18;;;;;;;17.40;13.70;;;22.90;99.10;;;;;;5051718;28;20041;-68
2022/05/19 10:18:50;;;;;;;15.70;13.82;;;23.00;97.90;;;;;;5051506;28;20067;-68
2022/05/19 10:21:36;;;;;;;16.02;12.68;;;23.00;98.60;;;;;;5051209;28;20032;-69
2022/05/19 10:24:16;;;;;;;15.88;12.48;;;22.90;97.90;;;;;;5051656;28;20076;-69
2022/05/19 10:31:02;;;;;;;15.13;13.45;;;23.10;97.90;;;;;;5053607;28;20037;-69
2022/05/19 10:33:02;;;;;;;14.23;10.02;;;23.30;96.40;;;;;;5055510;28;20115;-69
2022/05/19 10:35:43;;;;;;;12.00;8.40;;;23.40;97.10;;;;;;5055296;28;20048;-69
2022/05/19 10:39:03;;;;;;;11.75;8.55;;;23.50;95.80;;;;;;5055471;28;20130;-69
2022/05/19 10:41:35;;;;;;;12.48;9.18;;;23.70;94.90;;;;;;5038384;28;20055;-68
2022/05/19 10:44:38;;;;;;;13.00;8.98;;;23.80;95.30;;;;;;5050179;28;20094;-70
2022/05/19 10:47:13;;;;;;;12.48;7.90;;;23.90;93.20;;;;;;5047797;28;20048;-69
2022/05/19 10:49:44;;;;;;;9.38;6.43;;;23.90;93.60;;;;;;5054764;28;20062;-69
2022/05/19 10:52:53;;;;;;;10.02;7.50;;;23.90;92.60;;;;;;5053601;28;20438;-69
2022/05/19 10:55:25;;;;;;;13.70;10.15;;;23.90;91.90;;;;;;5054316;28;20099;-69
2022/05/19 10:58:18;;;;;;;12.87;9.93;;;24.00;92.70;;;;;;5054583;28;20041;-69
2022/05/19 11:01:22;;;;;;;16.52;9.98;;;24.00;93.20;;;;;;5054479;28;20418;-69
2022/05/19 11:04:26;;;;;;;19.10;13.32;;;23.90;93.30;;;;;;5029340;28;20060;-68
2022/05/19 11:07:18;;;;;;;16.42;10.45;;;23.80;93.60;;;;;;5054741;28;20037;-69
2022/05/19 11:10:01;;;;;;;16.38;12.63;;;23.80;93.20;;;;;;5054926;28;20139;-69
2022/05/19 11:13:01;;;;;;;20.10;12.98;;;23.80;93.90;;;;;;5054776;28;20170;-69
2022/05/19 11:15:57;;;;;;;14.63;12.63;;;23.60;92.90;;;;;;5054626;28;20506;-69
2022/05/19 11:18:32;;;;;;;18.45;15.43;;;23.60;94.10;;;;;;5053344;28;20400;-69
2022/05/19 11:21:15;;;;;;;18.70;12.05;;;23.50;94.50;;;;;;5053997;28;20040;-69
2022/05/19 11:23:41;;;;;;;;;;;23.50;93.60;;;;;;5052979;28;20040;-69
2022/05/19 11:26:35;;;;;;;16.90;14.90;;;23.60;94.70;;;;;;5053168;28;19986;-68
2022/05/19 11:29:06;;;;;;;25.52;19.95;;;23.80;95.00;;;;;;5054637;28;20115;-69
2022/05/19 11:31:39;;;;;;;23.83;17.88;;;23.80;94.80;;;;;;5053551;28;20463;-69
2022/05/19 11:34:30;;;;;;;23.23;16.88;;;23.70;95.30;;;;;;5053738;28;20115;-69
2022/05/19 11:37:12;;;;;;;19.33;15.70;;;23.70;95.70;;;;;;5050981;28;20055;-69
2022/05/19 11:39:58;;;;;;;21.38;18.88;;;23.80;95.10;;;;;;5053559;28;20045;-69
2022/05/19 11:42:46;;;;;;;22.05;18.25;;;23.90;94.80;;;;;;5053453;28;20057;-69
2022/05/19 11:45:19;;;;;;;20.98;18.45;;;24.10;95.40;;;;;;5052444;28;20041;-68
2022/05/19 11:56:41;;;;;;;18.27;16.30;;;24.60;93.80;;;;;;5053820;28;20045;-68
2022/05/19 11:59:10;;;;;;;19.00;15.82;;;24.70;93.80;;;;;;5053994;28;20086;-68
2022/05/19 12:01:46;;;;;;;19.08;14.48;;;24.90;93.50;;;;;;5053720;28;20041;-68
2022/05/19 12:04:21;;;;;;;20.20;15.32;;;25.00;92.70;;;;;;5054033;28;20033;-68
2022/05/19 12:07:15;;;;;;;22.65;18.75;;;25.00;92.40;;;;;;5053793;28;20087;-68
2022/05/19 12:09:53;;;;;;;21.50;18.80;;;25.10;93.10;;;;;;5053957;28;20039;-68
2022/05/19 12:12:36;;;;;;;16.40;14.52;;;25.10;93.40;;;;;;5053321;28;20041;-68
2022/05/19 12:15:17;;;;;;;19.45;12.68;;;25.10;91.70;;;;;;5051567;28;20047;-68
2022/05/19 12:17:57;;;;;;;17.33;14.55;;;25.30;91.60;;;;;;5052330;28;20072;-69
2022/05/19 12:20:53;;;;;;;19.83;17.00;;;25.30;91.60;;;;;;5053454;28;20085;-69
2022/05/19 12:23:33;;;;;;;14.93;13.13;;;25.40;92.00;;;;;;5053537;28;20068;-68
2022/05/19 12:26:04;;;;;;;16.15;12.50;;;25.30;89.50;;;;;;5053265;28;20040;-68
2022/05/19 12:29:12;;;;;;;12.27;10.60;;;25.40;90.80;;;;;;5053678;28;20067;-69
2022/05/19 12:31:59;;;;;;;9.20;8.00;;;25.40;89.40;;;;;;5052979;28;20057;-68
2022/05/19 12:34:31;;;;;;;13.40;9.80;;;25.40;90.00;;;;;;5053494;28;20037;-70
2022/05/19 12:37:24;;;;;;;11.10;9.25;;;25.30;88.70;;;;;;5053070;28;20049;-68
2022/05/19 12:39:51;;;;;;;9.52;7.95;;;25.30;86.10;;;;;;5053272;28;20168;-69
2022/05/19 12:42:23;;;;;;;8.90;7.95;;;25.30;86.40;;;;;;5052687;28;20499;-68
2022/05/19 12:44:51;;;;;;;13.93;9.57;;;25.30;86.40;;;;;;5053305;28;20037;-68
2022/05/19 12:47:21;;;;;;;11.02;9.27;;;25.20;87.00;;;;;;5053136;28;20055;-68
2022/05/19 12:50:08;;;;;;;20.48;10.70;;;25.10;86.70;;;;;;5051962;28;20045;-69
2022/05/19 12:52:56;;;;;;;11.90;8.70;;;25.00;88.40;;;;;;5053027;28;20102;-69
2022/05/19 12:55:24;;;;;;;10.85;8.30;;;24.70;91.20;;;;;;5050142;28;20402;-68
2022/05/19 12:57:55;;;;;;;12.48;8.43;;;24.60;93.30;;;;;;5052815;28;20068;-68
2022/05/19 13:00:23;;;;;;;11.23;8.77;;;24.40;93.30;;;;;;5052716;28;20052;-68
2022/05/19 13:03:04;;;;;;;13.75;9.55;;;24.20;93.90;;;;;;5052972;28;20404;-68
2022/05/19 13:05:42;;;;;;;12.10;8.60;;;24.10;94.00;;;;;;5052497;28;20041;-68
2022/05/19 13:08:21;;;;;;;9.32;7.63;;;23.90;94.30;;;;;;5052235;28;20428;-68
2022/05/19 13:10:50;;;;;;;9.38;7.88;;;23.70;95.00;;;;;;5052039;28;20120;-68